sensor_id;sensor_type;location;lat;lon;timestamp;pressure;altitude;pressure_sealevel;temperature;humidity
70954;BME280;58618;47.490;8.736;2024-03-06T00:02:34;96503.97;;;4.37;100.00
70954;BME280;58618;47.490;8.736;2024-03-06T00:05:21;96504.44;;;4.50;100.00
70954;BME280;58618;47.490;8.736;2024-03-06T00:08:08;96496.25;;;4.48;100.00
70954;BME280;58618;47.490;8.736;2024-03-06T00:10:56;96493.75;;;4.53;100.00
70954;BME280;58618;47.490;8.736;2024-03-06T00:13:43;96513.34;;;4.48;100.00
70954;BME280;58618;47.490;8.736;2024-03-06T00:16:33;96516.03;;;4.41;100.00
70954;BME280;58618;47.490;8.736;2024-03-06T00:19:22;96517.44;;;4.32;100.00
70954;BME280;58618;47.490;8.736;2024-03-06T00:22:10;96519.44;;;4.30;100.00
70954;BME280;58618;47.490;8.736;2024-03-06T00:24:57;96517.88;;;4.29;100.00
70954;BME280;58618;47.490;8.736;2024-03-06T00:27:44;96513.41;;;4.36;100.00
70954;BME280;58618;47.490;8.736;2024-03-06T00:30:32;96521.28;;;4.35;100.00
70954;BME280;58618;47.490;8.736;2024-03-06T00:33:19;96524.56;;;4.30;100.00
70954;BME280;58618;47.490;8.736;2024-03-06T00:36:08;96534.25;;;4.28;100.00
70954;BME280;58618;47.490;8.736;2024-03-06T00:38:55;96534.31;;;4.33;100.00
70954;BME280;58618;47.490;8.736;2024-03-06T00:41:42;96539.00;;;4.24;100.00
70954;BME280;58618;47.490;8.736;2024-03-06T00:44:30;96529.28;;;4.21;100.00
70954;BME280;58618;47.490;8.736;2024-03-06T00:47:17;96537.22;;;4.25;100.00
70954;BME280;58618;47.490;8.736;2024-03-06T00:50:05;96535.94;;;4.22;100.00
70954;BME280;58618;47.490;8.736;2024-03-06T00:52:55;96535.69;;;4.24;100.00
70954;BME280;58618;47.490;8.736;2024-03-06T00:55:42;96540.19;;;4.17;100.00
70954;BME280;58618;47.490;8.736;2024-03-06T00:58:30;96542.16;;;3.98;100.00
70954;BME280;58618;47.490;8.736;2024-03-06T01:01:17;96545.88;;;4.07;100.00
70954;BME280;58618;47.490;8.736;2024-03-06T01:04:04;96545.56;;;4.04;100.00
70954;BME280;58618;47.490;8.736;2024-03-06T01:06:52;96550.66;;;4.04;100.00
70954;BME280;58618;47.490;8.736;2024-03-06T01:09:41;96553.38;;;4.14;100.00
70954;BME280;58618;47.490;8.736;2024-03-06T01:12:28;96542.09;;;4.10;100.00
70954;BME280;58618;47.490;8.736;2024-03-06T01:15:15;96559.66;;;4.23;100.00
70954;BME280;58618;47.490;8.736;2024-03-06T01:18:03;96546.47;;;3.98;100.00
70954;BME280;58618;47.490;8.736;2024-03-06T01:20:51;96561.50;;;4.11;100.00
70954;BME280;58618;47.490;8.736;2024-03-06T01:23:38;96558.97;;;4.11;100.00
70954;BME280;58618;47.490;8.736;2024-03-06T01:26:27;96565.66;;;4.00;100.00
70954;BME280;58618;47.490;8.736;2024-03-06T01:29:14;96568.31;;;4.05;100.00
70954;BME280;58618;47.490;8.736;2024-03-06T01:32:01;96566.97;;;4.03;100.00
70954;BME280;58618;47.490;8.736;2024-03-06T01:34:49;96558.06;;;3.89;100.00
70954;BME280;58618;47.490;8.736;2024-03-06T01:37:36;96556.41;;;3.82;100.00
70954;BME280;58618;47.490;8.736;2024-03-06T01:40:23;96559.13;;;3.93;100.00
70954;BME280;58618;47.490;8.736;2024-03-06T01:43:20;96544.56;;;3.76;100.00
70954;BME280;58618;47.490;8.736;2024-03-06T01:46:08;96555.97;;;3.86;100.00
70954;BME280;58618;47.490;8.736;2024-03-06T01:48:56;96555.75;;;3.75;100.00
70954;BME280;58618;47.490;8.736;2024-03-06T01:51:48;96559.25;;;3.69;100.00
70954;BME280;58618;47.490;8.736;2024-03-06T01:54:37;96567.19;;;3.85;100.00
70954;BME280;58618;47.490;8.736;2024-03-06T01:57:25;96557.50;;;3.58;100.00
70954;BME280;58618;47.490;8.736;2024-03-06T02:00:14;96560.59;;;3.60;100.00
70954;BME280;58618;47.490;8.736;2024-03-06T02:03:03;96554.66;;;3.43;100.00
70954;BME280;58618;47.490;8.736;2024-03-06T02:05:51;96542.34;;;3.40;100.00
70954;BME280;58618;47.490;8.736;2024-03-06T02:08:40;96554.91;;;3.30;100.00
70954;BME280;58618;47.490;8.736;2024-03-06T02:11:27;96560.34;;;3.22;100.00
70954;BME280;58618;47.490;8.736;2024-03-06T02:14:15;96558.28;;;2.95;100.00
70954;BME280;58618;47.490;8.736;2024-03-06T02:17:04;96580.28;;;2.67;100.00
70954;BME280;58618;47.490;8.736;2024-03-06T02:19:51;96572.44;;;2.91;100.00
70954;BME280;58618;47.490;8.736;2024-03-06T02:22:40;96562.13;;;2.86;100.00
70954;BME280;58618;47.490;8.736;2024-03-06T02:25:28;96570.66;;;3.04;100.00
70954;BME280;58618;47.490;8.736;2024-03-06T02:28:15;96565.25;;;3.00;100.00
70954;BME280;58618;47.490;8.736;2024-03-06T02:31:04;96567.88;;;2.82;100.00
70954;BME280;58618;47.490;8.736;2024-03-06T02:33:52;96574.97;;;2.91;100.00
70954;BME280;58618;47.490;8.736;2024-03-06T02:36:40;96580.50;;;2.65;100.00
70954;BME280;58618;47.490;8.736;2024-03-06T02:39:29;96586.16;;;2.67;100.00
70954;BME280;58618;47.490;8.736;2024-03-06T02:42:16;96569.63;;;2.46;100.00
70954;BME280;58618;47.490;8.736;2024-03-06T02:45:05;96559.56;;;2.40;100.00
70954;BME280;58618;47.490;8.736;2024-03-06T02:47:52;96578.97;;;2.23;100.00
70954;BME280;58618;47.490;8.736;2024-03-06T02:50:40;96591.44;;;2.12;100.00
70954;BME280;58618;47.490;8.736;2024-03-06T02:53:27;96586.72;;;2.28;100.00
70954;BME280;58618;47.490;8.736;2024-03-06T02:56:17;96594.06;;;2.36;100.00
70954;BME280;58618;47.490;8.736;2024-03-06T02:59:05;96580.34;;;2.37;100.00
70954;BME280;58618;47.490;8.736;2024-03-06T03:01:52;96577.56;;;2.27;100.00
70954;BME280;58618;47.490;8.736;2024-03-06T03:04:39;96581.34;;;2.36;100.00
70954;BME280;58618;47.490;8.736;2024-03-06T03:07:26;96581.91;;;2.38;100.00
70954;BME280;58618;47.490;8.736;2024-03-06T03:10:14;96596.78;;;2.23;100.00
70954;BME280;58618;47.490;8.736;2024-03-06T03:13:03;96589.97;;;2.35;100.00
70954;BME280;58618;47.490;8.736;2024-03-06T03:15:51;96591.66;;;2.41;100.00
70954;BME280;58618;47.490;8.736;2024-03-06T03:18:39;96589.66;;;2.43;100.00
70954;BME280;58618;47.490;8.736;2024-03-06T03:21:26;96588.03;;;2.19;100.00
70954;BME280;58618;47.490;8.736;2024-03-06T03:24:13;96576.41;;;2.11;100.00
70954;BME280;58618;47.490;8.736;2024-03-06T03:27:01;96575.19;;;2.13;100.00
70954;BME280;58618;47.490;8.736;2024-03-06T03:29:49;96580.00;;;2.22;100.00
70954;BME280;58618;47.490;8.736;2024-03-06T03:32:37;96590.88;;;2.40;100.00
70954;BME280;58618;47.490;8.736;2024-03-06T03:35:24;96585.94;;;2.57;100.00
70954;BME280;58618;47.490;8.736;2024-03-06T03:38:12;96575.25;;;2.25;100.00
70954;BME280;58618;47.490;8.736;2024-03-06T03:40:59;96596.66;;;2.18;100.00
70954;BME280;58618;47.490;8.736;2024-03-06T03:43:47;96591.81;;;2.28;100.00
70954;BME280;58618;47.490;8.736;2024-03-06T03:46:36;96601.09;;;2.22;100.00
70954;BME280;58618;47.490;8.736;2024-03-06T03:49:24;96603.88;;;2.21;100.00
70954;BME280;58618;47.490;8.736;2024-03-06T03:52:11;96601.75;;;2.18;100.00
70954;BME280;58618;47.490;8.736;2024-03-06T03:54:58;96608.47;;;2.12;100.00
70954;BME280;58618;47.490;8.736;2024-03-06T03:57:46;96604.09;;;2.19;100.00
70954;BME280;58618;47.490;8.736;2024-03-06T04:00:33;96599.41;;;2.46;100.00
70954;BME280;58618;47.490;8.736;2024-03-06T04:03:23;96595.38;;;2.27;100.00
70954;BME280;58618;47.490;8.736;2024-03-06T04:06:10;96594.94;;;2.30;100.00
70954;BME280;58618;47.490;8.736;2024-03-06T04:08:58;96599.16;;;2.36;100.00
70954;BME280;58618;47.490;8.736;2024-03-06T04:11:45;96613.56;;;2.42;100.00
70954;BME280;58618;47.490;8.736;2024-03-06T04:14:32;96613.72;;;2.59;100.00
70954;BME280;58618;47.490;8.736;2024-03-06T04:17:20;96618.22;;;2.45;100.00
70954;BME280;58618;47.490;8.736;2024-03-06T04:20:10;96621.34;;;2.59;100.00
70954;BME280;58618;47.490;8.736;2024-03-06T04:22:58;96612.59;;;2.66;100.00
70954;BME280;58618;47.490;8.736;2024-03-06T04:25:46;96613.72;;;2.70;100.00
70954;BME280;58618;47.490;8.736;2024-03-06T04:28:33;96634.75;;;2.66;100.00
70954;BME280;58618;47.490;8.736;2024-03-06T04:31:20;96630.41;;;2.43;100.00
70954;BME280;58618;47.490;8.736;2024-03-06T04:34:08;96632.13;;;2.31;100.00
70954;BME280;58618;47.490;8.736;2024-03-06T04:36:56;96627.63;;;2.15;100.00
70954;BME280;58618;47.490;8.736;2024-03-06T04:39:44;96638.16;;;2.18;100.00
70954;BME280;58618;47.490;8.736;2024-03-06T04:42:31;96632.53;;;2.28;100.00
70954;BME280;58618;47.490;8.736;2024-03-06T04:45:19;96627.03;;;2.31;100.00
70954;BME280;58618;47.490;8.736;2024-03-06T04:48:07;96618.06;;;2.28;100.00
70954;BME280;58618;47.490;8.736;2024-03-06T04:50:54;96625.91;;;2.27;100.00
70954;BME280;58618;47.490;8.736;2024-03-06T04:53:43;96640.03;;;2.23;100.00
70954;BME280;58618;47.490;8.736;2024-03-06T04:56:30;96644.16;;;2.24;100.00
70954;BME280;58618;47.490;8.736;2024-03-06T04:59:18;96636.19;;;2.20;100.00
70954;BME280;58618;47.490;8.736;2024-03-06T05:02:05;96648.69;;;2.22;100.00
70954;BME280;58618;47.490;8.736;2024-03-06T05:04:52;96651.66;;;2.19;100.00
70954;BME280;58618;47.490;8.736;2024-03-06T05:07:40;96658.16;;;2.15;100.00
70954;BME280;58618;47.490;8.736;2024-03-06T05:10:29;96654.19;;;2.19;100.00
70954;BME280;58618;47.490;8.736;2024-03-06T05:13:16;96647.56;;;2.18;100.00
70954;BME280;58618;47.490;8.736;2024-03-06T05:16:04;96658.16;;;2.15;100.00
70954;BME280;58618;47.490;8.736;2024-03-06T05:18:52;96651.53;;;2.13;100.00
70954;BME280;58618;47.490;8.736;2024-03-06T05:21:39;96672.19;;;2.05;100.00
70954;BME280;58618;47.490;8.736;2024-03-06T05:24:26;96668.34;;;2.15;100.00
70954;BME280;58618;47.490;8.736;2024-03-06T05:27:15;96668.88;;;2.35;100.00
70954;BME280;58618;47.490;8.736;2024-03-06T05:30:04;96662.47;;;2.44;100.00
70954;BME280;58618;47.490;8.736;2024-03-06T05:32:52;96666.84;;;2.67;100.00
70954;BME280;58618;47.490;8.736;2024-03-06T05:35:39;96652.38;;;2.67;100.00
70954;BME280;58618;47.490;8.736;2024-03-06T05:38:27;96664.00;;;2.75;100.00
70954;BME280;58618;47.490;8.736;2024-03-06T05:41:14;96674.59;;;2.60;100.00
70954;BME280;58618;47.490;8.736;2024-03-06T05:44:05;96658.34;;;2.31;100.00
70954;BME280;58618;47.490;8.736;2024-03-06T05:46:52;96672.41;;;2.34;100.00
70954;BME280;58618;47.490;8.736;2024-03-06T05:49:40;96680.75;;;2.23;100.00
70954;BME280;58618;47.490;8.736;2024-03-06T05:52:27;96679.25;;;2.03;100.00
70954;BME280;58618;47.490;8.736;2024-03-06T05:55:14;96687.41;;;2.24;100.00
70954;BME280;58618;47.490;8.736;2024-03-06T05:58:02;96697.44;;;2.37;100.00
70954;BME280;58618;47.490;8.736;2024-03-06T06:00:50;96700.91;;;2.54;100.00
70954;BME280;58618;47.490;8.736;2024-03-06T06:03:38;96704.94;;;2.32;100.00
70954;BME280;58618;47.490;8.736;2024-03-06T06:06:25;96703.13;;;2.21;100.00
70954;BME280;58618;47.490;8.736;2024-03-06T06:09:12;96704.22;;;2.25;100.00
70954;BME280;58618;47.490;8.736;2024-03-06T06:12:01;96692.63;;;2.29;100.00
70954;BME280;58618;47.490;8.736;2024-03-06T06:14:49;96703.38;;;2.31;100.00
70954;BME280;58618;47.490;8.736;2024-03-06T06:17:37;96707.31;;;2.45;100.00
70954;BME280;58618;47.490;8.736;2024-03-06T06:20:25;96717.88;;;2.60;100.00
70954;BME280;58618;47.490;8.736;2024-03-06T06:23:13;96719.44;;;2.61;100.00
70954;BME280;58618;47.490;8.736;2024-03-06T06:26:00;96728.66;;;2.44;100.00
70954;BME280;58618;47.490;8.736;2024-03-06T06:28:47;96726.06;;;2.62;100.00
70954;BME280;58618;47.490;8.736;2024-03-06T06:31:35;96732.53;;;2.76;100.00
70954;BME280;58618;47.490;8.736;2024-03-06T06:34:24;96729.19;;;2.64;100.00
70954;BME280;58618;47.490;8.736;2024-03-06T06:37:13;96731.34;;;2.79;100.00
70954;BME280;58618;47.490;8.736;2024-03-06T06:40:01;96724.19;;;2.58;100.00
70954;BME280;58618;47.490;8.736;2024-03-06T06:42:52;96736.06;;;2.75;100.00
70954;BME280;58618;47.490;8.736;2024-03-06T06:45:39;96736.97;;;2.69;100.00
70954;BME280;58618;47.490;8.736;2024-03-06T06:48:27;96735.03;;;2.65;100.00
70954;BME280;58618;47.490;8.736;2024-03-06T06:51:15;96737.13;;;2.56;100.00
70954;BME280;58618;47.490;8.736;2024-03-06T06:54:03;96738.69;;;2.57;100.00
70954;BME280;58618;47.490;8.736;2024-03-06T06:56:50;96734.97;;;2.71;100.00
70954;BME280;58618;47.490;8.736;2024-03-06T06:59:38;96733.09;;;2.78;100.00
70954;BME280;58618;47.490;8.736;2024-03-06T07:02:25;96732.88;;;2.50;100.00
70954;BME280;58618;47.490;8.736;2024-03-06T07:05:13;96741.75;;;2.29;100.00
70954;BME280;58618;47.490;8.736;2024-03-06T07:08:02;96744.50;;;2.28;100.00
70954;BME280;58618;47.490;8.736;2024-03-06T07:10:50;96748.06;;;2.27;100.00
70954;BME280;58618;47.490;8.736;2024-03-06T07:13:39;96748.09;;;2.38;100.00
70954;BME280;58618;47.490;8.736;2024-03-06T07:16:26;96754.81;;;2.33;100.00
70954;BME280;58618;47.490;8.736;2024-03-06T07:19:14;96752.28;;;2.33;100.00
70954;BME280;58618;47.490;8.736;2024-03-06T07:22:01;96758.88;;;2.70;100.00
70954;BME280;58618;47.490;8.736;2024-03-06T07:24:50;96763.16;;;2.58;100.00
70954;BME280;58618;47.490;8.736;2024-03-06T07:27:37;96768.31;;;2.81;100.00
70954;BME280;58618;47.490;8.736;2024-03-06T07:30:25;96762.16;;;2.59;100.00
70954;BME280;58618;47.490;8.736;2024-03-06T07:33:13;96766.09;;;2.25;100.00
70954;BME280;58618;47.490;8.736;2024-03-06T07:36:01;96777.59;;;2.28;100.00
70954;BME280;58618;47.490;8.736;2024-03-06T07:38:48;96757.38;;;2.15;100.00
70954;BME280;58618;47.490;8.736;2024-03-06T07:41:37;96768.75;;;2.30;100.00
70954;BME280;58618;47.490;8.736;2024-03-06T07:44:24;96770.81;;;2.40;100.00
70954;BME280;58618;47.490;8.736;2024-03-06T07:47:11;96776.06;;;2.27;100.00
70954;BME280;58618;47.490;8.736;2024-03-06T07:50:00;96790.31;;;2.28;100.00
70954;BME280;58618;47.490;8.736;2024-03-06T07:52:48;96779.38;;;2.27;100.00
70954;BME280;58618;47.490;8.736;2024-03-06T07:55:35;96787.50;;;2.36;100.00
70954;BME280;58618;47.490;8.736;2024-03-06T07:58:26;96780.44;;;2.38;100.00
70954;BME280;58618;47.490;8.736;2024-03-06T08:01:13;96777.72;;;2.33;100.00
70954;BME280;58618;47.490;8.736;2024-03-06T08:04:00;96794.69;;;2.57;100.00
70954;BME280;58618;47.490;8.736;2024-03-06T08:06:48;96797.38;;;2.62;100.00
70954;BME280;58618;47.490;8.736;2024-03-06T08:09:35;96791.69;;;2.78;100.00
70954;BME280;58618;47.490;8.736;2024-03-06T08:12:22;96807.13;;;2.65;100.00
70954;BME280;58618;47.490;8.736;2024-03-06T08:15:13;96803.16;;;2.69;100.00
70954;BME280;58618;47.490;8.736;2024-03-06T08:18:00;96805.72;;;2.51;100.00
70954;BME280;58618;47.490;8.736;2024-03-06T08:20:49;96801.84;;;2.48;100.00
70954;BME280;58618;47.490;8.736;2024-03-06T08:23:37;96796.19;;;2.28;100.00
70954;BME280;58618;47.490;8.736;2024-03-06T08:26:24;96804.31;;;2.37;100.00
70954;BME280;58618;47.490;8.736;2024-03-06T08:29:11;96809.19;;;2.57;100.00
70954;BME280;58618;47.490;8.736;2024-03-06T08:32:00;96810.03;;;2.69;100.00
70954;BME280;58618;47.490;8.736;2024-03-06T08:34:47;96813.91;;;2.71;100.00
70954;BME280;58618;47.490;8.736;2024-03-06T08:37:35;96821.53;;;2.89;100.00
70954;BME280;58618;47.490;8.736;2024-03-06T08:40:22;96817.31;;;2.65;100.00
70954;BME280;58618;47.490;8.736;2024-03-06T08:43:12;96819.13;;;2.76;100.00
70954;BME280;58618;47.490;8.736;2024-03-06T08:46:01;96820.25;;;2.80;100.00
70954;BME280;58618;47.490;8.736;2024-03-06T08:48:50;96820.34;;;3.04;100.00
70954;BME280;58618;47.490;8.736;2024-03-06T08:51:38;96827.72;;;3.12;100.00
70954;BME280;58618;47.490;8.736;2024-03-06T08:54:25;96819.25;;;3.00;100.00
70954;BME280;58618;47.490;8.736;2024-03-06T08:57:12;96829.31;;;2.76;100.00
70954;BME280;58618;47.490;8.736;2024-03-06T09:00:00;96843.53;;;2.84;100.00
70954;BME280;58618;47.490;8.736;2024-03-06T09:02:48;96836.56;;;2.91;100.00
70954;BME280;58618;47.490;8.736;2024-03-06T09:05:37;96838.56;;;3.19;100.00
70954;BME280;58618;47.490;8.736;2024-03-06T09:08:24;96825.75;;;3.25;100.00
70954;BME280;58618;47.490;8.736;2024-03-06T09:11:12;96840.78;;;3.57;100.00
70954;BME280;58618;47.490;8.736;2024-03-06T09:13:59;96846.84;;;3.44;100.00
70954;BME280;58618;47.490;8.736;2024-03-06T09:16:47;96847.47;;;3.28;100.00
70954;BME280;58618;47.490;8.736;2024-03-06T09:19:34;96849.78;;;3.29;100.00
70954;BME280;58618;47.490;8.736;2024-03-06T09:22:23;96849.38;;;3.32;100.00
70954;BME280;58618;47.490;8.736;2024-03-06T09:25:11;96844.41;;;3.49;100.00
70954;BME280;58618;47.490;8.736;2024-03-06T09:27:59;96846.69;;;3.69;100.00
70954;BME280;58618;47.490;8.736;2024-03-06T09:30:50;96861.63;;;3.65;100.00
70954;BME280;58618;47.490;8.736;2024-03-06T09:33:38;96865.75;;;3.78;100.00
70954;BME280;58618;47.490;8.736;2024-03-06T09:36:26;96829.78;;;3.33;100.00
70954;BME280;58618;47.490;8.736;2024-03-06T09:39:16;96868.38;;;3.48;100.00
70954;BME280;58618;47.490;8.736;2024-03-06T09:42:06;96868.28;;;3.66;100.00
70954;BME280;58618;47.490;8.736;2024-03-06T09:44:54;96848.22;;;3.58;100.00
70954;BME280;58618;47.490;8.736;2024-03-06T09:47:42;96869.31;;;3.89;100.00
70954;BME280;58618;47.490;8.736;2024-03-06T09:50:31;96861.56;;;3.83;100.00
70954;BME280;58618;47.490;8.736;2024-03-06T09:53:24;96860.59;;;3.55;100.00
70954;BME280;58618;47.490;8.736;2024-03-06T09:56:12;96862.44;;;3.77;100.00
70954;BME280;58618;47.490;8.736;2024-03-06T09:59:00;96866.66;;;3.83;100.00
70954;BME280;58618;47.490;8.736;2024-03-06T10:01:50;96869.53;;;3.75;100.00
70954;BME280;58618;47.490;8.736;2024-03-06T10:04:37;96866.53;;;3.78;100.00
70954;BME280;58618;47.490;8.736;2024-03-06T10:07:25;96866.34;;;4.15;100.00
70954;BME280;58618;47.490;8.736;2024-03-06T10:10:13;96871.06;;;3.76;100.00
70954;BME280;58618;47.490;8.736;2024-03-06T10:13:03;96878.63;;;3.71;100.00
70954;BME280;58618;47.490;8.736;2024-03-06T10:15:57;96881.50;;;3.63;100.00
70954;BME280;58618;47.490;8.736;2024-03-06T10:18:45;96867.13;;;3.80;100.00
70954;BME280;58618;47.490;8.736;2024-03-06T10:21:32;96869.66;;;3.80;100.00
70954;BME280;58618;47.490;8.736;2024-03-06T10:24:20;96864.78;;;4.02;100.00
70954;BME280;58618;47.490;8.736;2024-03-06T10:27:14;96859.94;;;4.12;100.00
70954;BME280;58618;47.490;8.736;2024-03-06T10:30:05;96869.69;;;4.15;100.00
70954;BME280;58618;47.490;8.736;2024-03-06T10:32:57;96860.47;;;4.26;100.00
70954;BME280;58618;47.490;8.736;2024-03-06T10:36:04;96841.16;;;4.07;100.00
70954;BME280;58618;47.490;8.736;2024-03-06T10:38:55;96863.22;;;4.59;100.00
70954;BME280;58618;47.490;8.736;2024-03-06T10:41:51;96858.81;;;4.83;100.00
70954;BME280;58618;47.490;8.736;2024-03-06T10:44:46;96868.16;;;4.78;100.00
70954;BME280;58618;47.490;8.736;2024-03-06T10:47:39;96832.19;;;4.67;100.00
70954;BME280;58618;47.490;8.736;2024-03-06T10:50:27;96865.44;;;4.96;100.00
70954;BME280;58618;47.490;8.736;2024-03-06T10:53:15;96871.72;;;4.77;100.00
70954;BME280;58618;47.490;8.736;2024-03-06T10:56:04;96872.47;;;4.89;100.00
70954;BME280;58618;47.490;8.736;2024-03-06T10:58:55;96882.81;;;4.71;100.00
70954;BME280;58618;47.490;8.736;2024-03-06T11:01:44;96877.06;;;5.03;100.00
70954;BME280;58618;47.490;8.736;2024-03-06T11:04:34;96890.38;;;4.65;100.00
70954;BME280;58618;47.490;8.736;2024-03-06T11:07:23;96885.59;;;4.81;100.00
70954;BME280;58618;47.490;8.736;2024-03-06T11:10:11;96876.09;;;4.53;100.00
70954;BME280;58618;47.490;8.736;2024-03-06T11:13:03;96877.00;;;4.87;100.00
70954;BME280;58618;47.490;8.736;2024-03-06T11:15:52;96845.31;;;4.59;100.00
70954;BME280;58618;47.490;8.736;2024-03-06T11:18:41;96873.72;;;4.75;100.00
70954;BME280;58618;47.490;8.736;2024-03-06T11:21:33;96879.19;;;4.55;100.00
70954;BME280;58618;47.490;8.736;2024-03-06T11:24:22;96884.75;;;4.52;100.00
70954;BME280;58618;47.490;8.736;2024-03-06T11:27:09;96877.28;;;4.74;100.00
70954;BME280;58618;47.490;8.736;2024-03-06T11:30:06;96875.53;;;4.62;100.00
70954;BME280;58618;47.490;8.736;2024-03-06T11:32:57;96886.53;;;4.63;100.00
70954;BME280;58618;47.490;8.736;2024-03-06T11:36:15;96888.31;;;4.51;100.00
70954;BME280;58618;47.490;8.736;2024-03-06T11:39:06;96885.84;;;4.67;100.00
70954;BME280;58618;47.490;8.736;2024-03-06T11:41:54;96887.97;;;4.47;100.00
70954;BME280;58618;47.490;8.736;2024-03-06T11:44:53;96878.19;;;4.44;100.00
70954;BME280;58618;47.490;8.736;2024-03-06T11:47:56;96876.91;;;4.07;100.00
70954;BME280;58618;47.490;8.736;2024-03-06T11:50:44;96876.66;;;4.20;100.00
70954;BME280;58618;47.490;8.736;2024-03-06T11:53:33;96882.19;;;4.52;100.00
70954;BME280;58618;47.490;8.736;2024-03-06T11:56:22;96875.69;;;4.33;100.00
70954;BME280;58618;47.490;8.736;2024-03-06T11:59:09;96872.19;;;4.50;100.00
70954;BME280;58618;47.490;8.736;2024-03-06T12:01:58;96878.44;;;4.54;100.00
70954;BME280;58618;47.490;8.736;2024-03-06T12:04:48;96875.22;;;4.24;100.00
70954;BME280;58618;47.490;8.736;2024-03-06T12:07:45;96872.00;;;4.40;100.00
70954;BME280;58618;47.490;8.736;2024-03-06T12:10:36;96879.13;;;4.38;100.00
70954;BME280;58618;47.490;8.736;2024-03-06T12:13:25;96874.31;;;4.42;100.00
70954;BME280;58618;47.490;8.736;2024-03-06T12:16:12;96863.75;;;4.61;100.00
70954;BME280;58618;47.490;8.736;2024-03-06T12:19:00;96872.97;;;4.39;100.00
70954;BME280;58618;47.490;8.736;2024-03-06T12:21:48;96861.75;;;4.63;100.00
70954;BME280;58618;47.490;8.736;2024-03-06T12:24:35;96862.06;;;4.67;100.00
70954;BME280;58618;47.490;8.736;2024-03-06T12:27:23;96864.31;;;4.92;100.00
70954;BME280;58618;47.490;8.736;2024-03-06T12:30:12;96856.31;;;4.60;100.00
70954;BME280;58618;47.490;8.736;2024-03-06T12:33:01;96868.53;;;4.70;100.00
70954;BME280;58618;47.490;8.736;2024-03-06T12:36:00;96853.28;;;4.75;100.00
70954;BME280;58618;47.490;8.736;2024-03-06T12:38:54;96849.50;;;4.65;100.00
70954;BME280;58618;47.490;8.736;2024-03-06T12:41:41;96860.25;;;4.91;100.00
70954;BME280;58618;47.490;8.736;2024-03-06T12:44:29;96862.84;;;4.67;100.00
70954;BME280;58618;47.490;8.736;2024-03-06T12:47:17;96851.53;;;4.63;100.00
70954;BME280;58618;47.490;8.736;2024-03-06T12:50:06;96851.72;;;4.74;100.00
70954;BME280;58618;47.490;8.736;2024-03-06T12:52:54;96862.38;;;4.71;100.00
70954;BME280;58618;47.490;8.736;2024-03-06T12:55:41;96862.44;;;4.47;100.00
70954;BME280;58618;47.490;8.736;2024-03-06T12:58:29;96854.69;;;4.82;100.00
70954;BME280;58618;47.490;8.736;2024-03-06T13:01:17;96848.47;;;4.90;100.00
70954;BME280;58618;47.490;8.736;2024-03-06T13:04:07;96839.75;;;4.62;100.00
70954;BME280;58618;47.490;8.736;2024-03-06T13:06:56;96851.25;;;4.77;100.00
70954;BME280;58618;47.490;8.736;2024-03-06T13:09:43;96851.91;;;4.84;100.00
70954;BME280;58618;47.490;8.736;2024-03-06T13:12:30;96849.88;;;5.26;100.00
70954;BME280;58618;47.490;8.736;2024-03-06T13:15:18;96829.50;;;5.02;100.00
70954;BME280;58618;47.490;8.736;2024-03-06T13:18:05;96853.09;;;4.93;100.00
70954;BME280;58618;47.490;8.736;2024-03-06T13:20:54;96850.88;;;4.96;100.00
70954;BME280;58618;47.490;8.736;2024-03-06T13:23:44;96847.06;;;4.71;100.00
70954;BME280;58618;47.490;8.736;2024-03-06T13:26:31;96863.31;;;4.64;100.00
70954;BME280;58618;47.490;8.736;2024-03-06T13:29:19;96864.09;;;4.65;100.00
70954;BME280;58618;47.490;8.736;2024-03-06T13:32:06;96862.84;;;4.67;100.00
70954;BME280;58618;47.490;8.736;2024-03-06T13:34:53;96865.06;;;4.76;100.00
70954;BME280;58618;47.490;8.736;2024-03-06T13:37:43;96861.94;;;4.74;100.00
70954;BME280;58618;47.490;8.736;2024-03-06T13:40:30;96860.84;;;4.70;100.00
70954;BME280;58618;47.490;8.736;2024-03-06T13:43:17;96860.69;;;4.76;100.00
70954;BME280;58618;47.490;8.736;2024-03-06T13:46:09;96871.19;;;4.51;100.00
70954;BME280;58618;47.490;8.736;2024-03-06T13:48:56;96866.84;;;4.63;100.00
70954;BME280;58618;47.490;8.736;2024-03-06T13:51:43;96869.72;;;4.67;100.00
70954;BME280;58618;47.490;8.736;2024-03-06T13:54:32;96872.59;;;4.71;100.00
70954;BME280;58618;47.490;8.736;2024-03-06T13:57:20;96878.44;;;4.31;100.00
70954;BME280;58618;47.490;8.736;2024-03-06T14:00:08;96875.63;;;4.56;100.00
70954;BME280;58618;47.490;8.736;2024-03-06T14:03:03;96875.53;;;4.62;100.00
70954;BME280;58618;47.490;8.736;2024-03-06T14:05:51;96876.28;;;4.63;100.00
70954;BME280;58618;47.490;8.736;2024-03-06T14:08:38;96871.16;;;4.75;100.00
70954;BME280;58618;47.490;8.736;2024-03-06T14:11:28;96874.63;;;4.68;100.00
70954;BME280;58618;47.490;8.736;2024-03-06T14:14:16;96877.66;;;4.42;100.00
70954;BME280;58618;47.490;8.736;2024-03-06T14:17:04;96887.69;;;4.84;100.00
70954;BME280;58618;47.490;8.736;2024-03-06T14:19:51;96886.13;;;4.83;100.00
70954;BME280;58618;47.490;8.736;2024-03-06T14:22:38;96886.84;;;4.66;100.00
70954;BME280;58618;47.490;8.736;2024-03-06T14:25:26;96890.63;;;4.52;100.00
70954;BME280;58618;47.490;8.736;2024-03-06T14:28:17;96883.28;;;4.67;100.00
70954;BME280;58618;47.490;8.736;2024-03-06T14:31:05;96892.63;;;4.50;100.00
70954;BME280;58618;47.490;8.736;2024-03-06T14:33:53;96898.63;;;4.67;100.00
70954;BME280;58618;47.490;8.736;2024-03-06T14:36:40;96890.84;;;4.39;100.00
70954;BME280;58618;47.490;8.736;2024-03-06T14:39:28;96890.84;;;4.62;100.00
70954;BME280;58618;47.490;8.736;2024-03-06T14:42:16;96892.16;;;4.77;100.00
70954;BME280;58618;47.490;8.736;2024-03-06T14:45:07;96904.19;;;4.64;100.00
70954;BME280;58618;47.490;8.736;2024-03-06T14:47:56;96897.06;;;4.66;100.00
70954;BME280;58618;47.490;8.736;2024-03-06T14:50:43;96896.28;;;4.66;100.00
70954;BME280;58618;47.490;8.736;2024-03-06T14:53:31;96892.31;;;4.47;100.00